KMNE

Minden Airport

Minden, Louisiana, USA
METAR KMNE 172215Z AUTO 29003KT 10SM CLR 38/20 A3000 RMK AO2 LTG DSNT NW THRU NE T03750198 PWINO
Observed Flight Rules
Aug-17 @ 22:15 UTC (22 minutes ago) Visual Flight Rules
Wind Visibility Clouds
290° at 3 knots 10 miles
  • Clear skies
Temperatures Readings
Current 38°C / 100°F
Dewpoint 20°C / 68°F
Humidity 35%
Altimeter 30" Hg
Pressure 1016 hPa
Elevation 85
METAR KMNE 172215Z AUTO 29003KT 10SM CLR 38/20 A3000 RMK AO2 LTG DSNT NW THRU NE T03750198 PWINO
Observed Flight Rules
Aug-17 @ 22:15 UTC
(22 minutes ago)
VFR
Wind Visibility
290° at 3 knots 10 miles
Clouds
  • Clear skies
Temperature Dewpoint
38°C / 100°F 20°C / 68°F
Humidity Altimeter Pressure
35% 30" Hg 1016 hPa